sensor_id;sensor_type;location;lat;lon;timestamp;P1;durP1;ratioP1;P2;durP2;ratioP2
19810;SDS011;10065;49.632;8.346;2023-08-12T00:02:16;11.30;;;6.80;;
19810;SDS011;10065;49.632;8.346;2023-08-12T00:04:45;10.48;;;7.63;;
19810;SDS011;10065;49.632;8.346;2023-08-12T00:07:14;13.77;;;7.82;;
19810;SDS011;10065;49.632;8.346;2023-08-12T00:09:42;13.82;;;6.72;;
19810;SDS011;10065;49.632;8.346;2023-08-12T00:12:10;9.57;;;6.55;;
19810;SDS011;10065;49.632;8.346;2023-08-12T00:14:38;11.65;;;6.28;;
19810;SDS011;10065;49.632;8.346;2023-08-12T00:17:05;11.32;;;6.07;;
19810;SDS011;10065;49.632;8.346;2023-08-12T00:19:33;9.13;;;5.82;;
19810;SDS011;10065;49.632;8.346;2023-08-12T00:22:01;9.73;;;6.00;;
19810;SDS011;10065;49.632;8.346;2023-08-12T00:24:32;8.52;;;5.78;;
19810;SDS011;10065;49.632;8.346;2023-08-12T00:27:00;9.77;;;5.10;;
19810;SDS011;10065;49.632;8.346;2023-08-12T00:29:27;10.95;;;5.75;;
19810;SDS011;10065;49.632;8.346;2023-08-12T00:31:55;7.72;;;5.20;;
19810;SDS011;10065;49.632;8.346;2023-08-12T00:34:23;10.05;;;5.63;;
19810;SDS011;10065;49.632;8.346;2023-08-12T00:36:51;13.10;;;5.28;;
19810;SDS011;10065;49.632;8.346;2023-08-12T00:39:19;9.93;;;5.40;;
19810;SDS011;10065;49.632;8.346;2023-08-12T00:41:48;9.27;;;5.90;;
19810;SDS011;10065;49.632;8.346;2023-08-12T00:44:16;11.65;;;6.15;;
19810;SDS011;10065;49.632;8.346;2023-08-12T00:46:43;13.85;;;5.95;;
19810;SDS011;10065;49.632;8.346;2023-08-12T00:49:12;10.82;;;5.97;;
19810;SDS011;10065;49.632;8.346;2023-08-12T00:51:40;11.23;;;5.53;;
19810;SDS011;10065;49.632;8.346;2023-08-12T00:54:13;14.05;;;5.80;;
19810;SDS011;10065;49.632;8.346;2023-08-12T00:56:42;14.07;;;5.28;;
19810;SDS011;10065;49.632;8.346;2023-08-12T00:59:11;9.90;;;5.72;;
19810;SDS011;10065;49.632;8.346;2023-08-12T01:01:40;10.43;;;5.30;;
19810;SDS011;10065;49.632;8.346;2023-08-12T01:04:08;7.45;;;5.60;;
19810;SDS011;10065;49.632;8.346;2023-08-12T01:06:37;8.93;;;6.15;;
19810;SDS011;10065;49.632;8.346;2023-08-12T01:09:05;14.32;;;6.32;;
19810;SDS011;10065;49.632;8.346;2023-08-12T01:11:35;10.05;;;5.82;;
19810;SDS011;10065;49.632;8.346;2023-08-12T01:14:08;10.27;;;5.72;;
19810;SDS011;10065;49.632;8.346;2023-08-12T01:16:46;8.30;;;5.72;;
19810;SDS011;10065;49.632;8.346;2023-08-12T01:19:19;8.15;;;5.80;;
19810;SDS011;10065;49.632;8.346;2023-08-12T01:21:53;12.57;;;6.80;;
19810;SDS011;10065;49.632;8.346;2023-08-12T01:24:26;9.55;;;6.30;;
19810;SDS011;10065;49.632;8.346;2023-08-12T01:26:56;7.40;;;5.13;;
19810;SDS011;10065;49.632;8.346;2023-08-12T01:29:25;8.55;;;5.60;;
19810;SDS011;10065;49.632;8.346;2023-08-12T01:31:54;9.32;;;5.40;;
19810;SDS011;10065;49.632;8.346;2023-08-12T01:34:26;9.88;;;5.45;;
19810;SDS011;10065;49.632;8.346;2023-08-12T01:37:00;10.23;;;5.88;;
19810;SDS011;10065;49.632;8.346;2023-08-12T01:39:33;7.20;;;5.13;;
19810;SDS011;10065;49.632;8.346;2023-08-12T01:42:02;9.18;;;5.53;;
19810;SDS011;10065;49.632;8.346;2023-08-12T01:44:32;12.30;;;5.47;;
19810;SDS011;10065;49.632;8.346;2023-08-12T01:46:59;7.57;;;5.03;;
19810;SDS011;10065;49.632;8.346;2023-08-12T01:49:27;9.30;;;6.22;;
19810;SDS011;10065;49.632;8.346;2023-08-12T01:51:55;8.20;;;5.75;;
19810;SDS011;10065;49.632;8.346;2023-08-12T01:54:23;10.20;;;5.38;;
19810;SDS011;10065;49.632;8.346;2023-08-12T01:56:52;9.32;;;5.82;;
19810;SDS011;10065;49.632;8.346;2023-08-12T01:59:20;9.90;;;5.10;;
19810;SDS011;10065;49.632;8.346;2023-08-12T02:01:48;8.60;;;5.07;;
19810;SDS011;10065;49.632;8.346;2023-08-12T02:04:16;8.30;;;5.15;;
19810;SDS011;10065;49.632;8.346;2023-08-12T02:06:43;10.23;;;6.20;;
19810;SDS011;10065;49.632;8.346;2023-08-12T02:09:13;9.95;;;7.15;;
19810;SDS011;10065;49.632;8.346;2023-08-12T02:11:41;10.52;;;8.20;;
19810;SDS011;10065;49.632;8.346;2023-08-12T02:14:10;12.40;;;7.95;;
19810;SDS011;10065;49.632;8.346;2023-08-12T02:16:38;10.77;;;7.95;;
19810;SDS011;10065;49.632;8.346;2023-08-12T02:19:06;9.93;;;7.40;;
19810;SDS011;10065;49.632;8.346;2023-08-12T02:21:34;10.48;;;6.63;;
19810;SDS011;10065;49.632;8.346;2023-08-12T02:24:02;8.30;;;5.50;;
19810;SDS011;10065;49.632;8.346;2023-08-12T02:26:30;7.13;;;5.00;;
19810;SDS011;10065;49.632;8.346;2023-08-12T02:28:58;9.18;;;4.65;;
19810;SDS011;10065;49.632;8.346;2023-08-12T02:31:27;8.32;;;4.70;;
19810;SDS011;10065;49.632;8.346;2023-08-12T02:33:55;10.00;;;4.75;;
19810;SDS011;10065;49.632;8.346;2023-08-12T02:36:24;6.97;;;4.68;;
19810;SDS011;10065;49.632;8.346;2023-08-12T02:38:53;12.13;;;5.25;;
19810;SDS011;10065;49.632;8.346;2023-08-12T02:41:20;8.27;;;4.57;;
19810;SDS011;10065;49.632;8.346;2023-08-12T02:43:48;7.80;;;3.85;;
19810;SDS011;10065;49.632;8.346;2023-08-12T02:46:16;8.23;;;4.30;;
19810;SDS011;10065;49.632;8.346;2023-08-12T02:48:46;10.68;;;4.65;;
19810;SDS011;10065;49.632;8.346;2023-08-12T02:51:14;6.82;;;3.97;;
19810;SDS011;10065;49.632;8.346;2023-08-12T02:53:42;6.68;;;4.10;;
19810;SDS011;10065;49.632;8.346;2023-08-12T02:56:10;8.50;;;4.10;;
19810;SDS011;10065;49.632;8.346;2023-08-12T02:58:38;7.38;;;4.18;;
19810;SDS011;10065;49.632;8.346;2023-08-12T03:01:05;6.95;;;4.40;;
19810;SDS011;10065;49.632;8.346;2023-08-12T03:03:34;8.48;;;4.18;;
19810;SDS011;10065;49.632;8.346;2023-08-12T03:06:03;6.43;;;4.18;;
19810;SDS011;10065;49.632;8.346;2023-08-12T03:08:31;9.05;;;4.53;;
19810;SDS011;10065;49.632;8.346;2023-08-12T03:10:59;7.88;;;4.13;;
19810;SDS011;10065;49.632;8.346;2023-08-12T03:13:28;8.63;;;3.95;;
19810;SDS011;10065;49.632;8.346;2023-08-12T03:15:56;4.88;;;3.90;;
19810;SDS011;10065;49.632;8.346;2023-08-12T03:18:24;9.27;;;4.22;;
19810;SDS011;10065;49.632;8.346;2023-08-12T03:20:52;9.35;;;4.50;;
19810;SDS011;10065;49.632;8.346;2023-08-12T03:23:21;8.15;;;3.90;;
19810;SDS011;10065;49.632;8.346;2023-08-12T03:25:48;6.32;;;4.82;;
19810;SDS011;10065;49.632;8.346;2023-08-12T03:28:16;8.25;;;4.97;;
19810;SDS011;10065;49.632;8.346;2023-08-12T03:30:49;6.30;;;4.72;;
19810;SDS011;10065;49.632;8.346;2023-08-12T03:33:18;6.15;;;4.70;;
19810;SDS011;10065;49.632;8.346;2023-08-12T03:35:46;5.85;;;4.47;;
19810;SDS011;10065;49.632;8.346;2023-08-12T03:38:14;8.60;;;4.70;;
19810;SDS011;10065;49.632;8.346;2023-08-12T03:40:43;11.57;;;5.38;;
19810;SDS011;10065;49.632;8.346;2023-08-12T03:43:11;6.97;;;4.70;;
19810;SDS011;10065;49.632;8.346;2023-08-12T03:45:39;15.27;;;5.45;;
19810;SDS011;10065;49.632;8.346;2023-08-12T03:48:08;7.95;;;4.70;;
19810;SDS011;10065;49.632;8.346;2023-08-12T03:50:36;6.45;;;4.68;;
19810;SDS011;10065;49.632;8.346;2023-08-12T03:53:05;8.23;;;4.82;;
19810;SDS011;10065;49.632;8.346;2023-08-12T03:55:35;6.22;;;4.80;;
19810;SDS011;10065;49.632;8.346;2023-08-12T03:58:04;6.65;;;4.63;;
19810;SDS011;10065;49.632;8.346;2023-08-12T04:00:32;11.35;;;5.63;;
19810;SDS011;10065;49.632;8.346;2023-08-12T04:03:00;9.38;;;5.22;;
19810;SDS011;10065;49.632;8.346;2023-08-12T04:05:28;10.80;;;5.35;;
19810;SDS011;10065;49.632;8.346;2023-08-12T04:07:56;7.80;;;5.43;;
19810;SDS011;10065;49.632;8.346;2023-08-12T04:10:24;8.80;;;5.03;;
19810;SDS011;10065;49.632;8.346;2023-08-12T04:12:52;9.85;;;5.20;;
19810;SDS011;10065;49.632;8.346;2023-08-12T04:15:21;8.57;;;5.32;;
19810;SDS011;10065;49.632;8.346;2023-08-12T04:17:49;7.30;;;5.32;;
19810;SDS011;10065;49.632;8.346;2023-08-12T04:20:18;8.30;;;5.40;;
19810;SDS011;10065;49.632;8.346;2023-08-12T04:22:48;8.40;;;5.53;;
19810;SDS011;10065;49.632;8.346;2023-08-12T04:25:16;8.40;;;5.70;;
19810;SDS011;10065;49.632;8.346;2023-08-12T04:27:44;6.80;;;4.97;;
19810;SDS011;10065;49.632;8.346;2023-08-12T04:30:13;9.70;;;5.43;;
19810;SDS011;10065;49.632;8.346;2023-08-12T04:32:42;8.20;;;5.30;;
19810;SDS011;10065;49.632;8.346;2023-08-12T04:35:10;7.53;;;5.20;;
19810;SDS011;10065;49.632;8.346;2023-08-12T04:37:38;8.95;;;5.18;;
19810;SDS011;10065;49.632;8.346;2023-08-12T04:40:06;9.63;;;5.28;;
19810;SDS011;10065;49.632;8.346;2023-08-12T04:42:35;9.68;;;5.65;;
19810;SDS011;10065;49.632;8.346;2023-08-12T04:45:03;8.60;;;5.10;;
19810;SDS011;10065;49.632;8.346;2023-08-12T04:47:32;9.90;;;5.47;;
19810;SDS011;10065;49.632;8.346;2023-08-12T04:50:01;9.77;;;6.72;;
19810;SDS011;10065;49.632;8.346;2023-08-12T04:52:29;11.02;;;6.32;;
19810;SDS011;10065;49.632;8.346;2023-08-12T04:54:57;8.63;;;6.07;;
19810;SDS011;10065;49.632;8.346;2023-08-12T04:57:25;9.52;;;5.88;;
19810;SDS011;10065;49.632;8.346;2023-08-12T04:59:54;8.35;;;5.70;;
19810;SDS011;10065;49.632;8.346;2023-08-12T05:02:22;6.47;;;5.70;;
19810;SDS011;10065;49.632;8.346;2023-08-12T05:04:50;9.52;;;5.80;;
19810;SDS011;10065;49.632;8.346;2023-08-12T05:07:20;10.02;;;6.45;;
19810;SDS011;10065;49.632;8.346;2023-08-12T05:09:48;13.77;;;6.03;;
19810;SDS011;10065;49.632;8.346;2023-08-12T05:12:16;10.02;;;6.63;;
19810;SDS011;10065;49.632;8.346;2023-08-12T05:14:44;10.23;;;6.20;;
19810;SDS011;10065;49.632;8.346;2023-08-12T05:17:12;12.38;;;6.88;;
19810;SDS011;10065;49.632;8.346;2023-08-12T05:19:40;8.02;;;6.25;;
19810;SDS011;10065;49.632;8.346;2023-08-12T05:22:08;10.90;;;6.40;;
19810;SDS011;10065;49.632;8.346;2023-08-12T05:24:37;13.95;;;6.22;;
19810;SDS011;10065;49.632;8.346;2023-08-12T05:27:05;8.18;;;6.57;;
19810;SDS011;10065;49.632;8.346;2023-08-12T05:29:33;11.15;;;6.60;;
19810;SDS011;10065;49.632;8.346;2023-08-12T05:32:01;11.27;;;6.47;;
19810;SDS011;10065;49.632;8.346;2023-08-12T05:34:29;12.15;;;6.82;;
19810;SDS011;10065;49.632;8.346;2023-08-12T05:36:57;9.57;;;5.93;;
19810;SDS011;10065;49.632;8.346;2023-08-12T05:39:24;10.25;;;6.10;;
19810;SDS011;10065;49.632;8.346;2023-08-12T05:41:54;8.70;;;5.93;;
19810;SDS011;10065;49.632;8.346;2023-08-12T05:44:21;11.18;;;5.93;;
19810;SDS011;10065;49.632;8.346;2023-08-12T05:46:49;8.90;;;6.40;;
19810;SDS011;10065;49.632;8.346;2023-08-12T05:49:17;9.30;;;6.25;;
19810;SDS011;10065;49.632;8.346;2023-08-12T05:51:45;10.52;;;5.93;;
19810;SDS011;10065;49.632;8.346;2023-08-12T05:54:14;7.15;;;6.13;;
19810;SDS011;10065;49.632;8.346;2023-08-12T05:56:41;7.20;;;5.70;;
19810;SDS011;10065;49.632;8.346;2023-08-12T05:59:11;10.95;;;7.20;;
19810;SDS011;10065;49.632;8.346;2023-08-12T06:01:38;9.05;;;5.78;;
19810;SDS011;10065;49.632;8.346;2023-08-12T06:04:06;10.52;;;6.10;;
19810;SDS011;10065;49.632;8.346;2023-08-12T06:06:34;9.20;;;7.10;;
19810;SDS011;10065;49.632;8.346;2023-08-12T06:09:02;11.57;;;7.22;;
19810;SDS011;10065;49.632;8.346;2023-08-12T06:11:30;8.25;;;6.10;;
19810;SDS011;10065;49.632;8.346;2023-08-12T06:13:58;8.75;;;6.53;;
19810;SDS011;10065;49.632;8.346;2023-08-12T06:16:27;7.55;;;5.78;;
19810;SDS011;10065;49.632;8.346;2023-08-12T06:18:55;11.18;;;6.35;;
19810;SDS011;10065;49.632;8.346;2023-08-12T06:21:23;8.55;;;6.47;;
19810;SDS011;10065;49.632;8.346;2023-08-12T06:23:50;8.75;;;7.13;;
19810;SDS011;10065;49.632;8.346;2023-08-12T06:26:18;14.02;;;7.30;;
19810;SDS011;10065;49.632;8.346;2023-08-12T06:28:46;10.45;;;7.57;;
19810;SDS011;10065;49.632;8.346;2023-08-12T06:31:14;13.43;;;6.68;;
19810;SDS011;10065;49.632;8.346;2023-08-12T06:33:43;11.88;;;6.43;;
19810;SDS011;10065;49.632;8.346;2023-08-12T06:36:11;11.07;;;7.20;;
19810;SDS011;10065;49.632;8.346;2023-08-12T06:38:39;9.52;;;6.32;;
19810;SDS011;10065;49.632;8.346;2023-08-12T06:41:07;9.77;;;6.65;;
19810;SDS011;10065;49.632;8.346;2023-08-12T06:43:34;11.40;;;6.95;;
19810;SDS011;10065;49.632;8.346;2023-08-12T06:46:02;11.93;;;7.65;;
19810;SDS011;10065;49.632;8.346;2023-08-12T06:48:30;9.13;;;6.65;;
19810;SDS011;10065;49.632;8.346;2023-08-12T06:50:59;8.38;;;5.88;;
19810;SDS011;10065;49.632;8.346;2023-08-12T06:53:30;9.35;;;6.22;;
19810;SDS011;10065;49.632;8.346;2023-08-12T06:55:58;8.32;;;7.00;;
19810;SDS011;10065;49.632;8.346;2023-08-12T06:58:26;10.60;;;6.57;;
19810;SDS011;10065;49.632;8.346;2023-08-12T07:00:53;10.10;;;7.45;;
19810;SDS011;10065;49.632;8.346;2023-08-12T07:03:21;14.65;;;6.97;;
19810;SDS011;10065;49.632;8.346;2023-08-12T07:05:49;10.15;;;6.95;;
19810;SDS011;10065;49.632;8.346;2023-08-12T07:08:18;11.60;;;6.90;;
19810;SDS011;10065;49.632;8.346;2023-08-12T07:10:46;8.18;;;6.43;;
19810;SDS011;10065;49.632;8.346;2023-08-12T07:13:14;14.05;;;8.27;;
19810;SDS011;10065;49.632;8.346;2023-08-12T07:15:42;12.25;;;7.18;;
19810;SDS011;10065;49.632;8.346;2023-08-12T07:18:09;12.77;;;6.38;;
19810;SDS011;10065;49.632;8.346;2023-08-12T07:20:37;10.73;;;6.88;;
19810;SDS011;10065;49.632;8.346;2023-08-12T07:23:05;14.73;;;6.43;;
19810;SDS011;10065;49.632;8.346;2023-08-12T07:25:34;7.85;;;5.68;;
19810;SDS011;10065;49.632;8.346;2023-08-12T07:28:02;7.93;;;6.15;;
19810;SDS011;10065;49.632;8.346;2023-08-12T07:30:30;11.00;;;6.93;;
19810;SDS011;10065;49.632;8.346;2023-08-12T07:32:58;10.50;;;6.70;;
19810;SDS011;10065;49.632;8.346;2023-08-12T07:35:25;8.70;;;6.65;;
19810;SDS011;10065;49.632;8.346;2023-08-12T07:37:53;9.55;;;7.20;;
19810;SDS011;10065;49.632;8.346;2023-08-12T07:40:21;8.63;;;6.70;;
19810;SDS011;10065;49.632;8.346;2023-08-12T07:42:50;11.35;;;6.57;;
19810;SDS011;10065;49.632;8.346;2023-08-12T07:45:18;8.75;;;6.90;;
19810;SDS011;10065;49.632;8.346;2023-08-12T07:47:46;12.48;;;6.45;;
19810;SDS011;10065;49.632;8.346;2023-08-12T07:50:13;8.77;;;5.80;;
19810;SDS011;10065;49.632;8.346;2023-08-12T07:52:41;7.85;;;5.80;;
19810;SDS011;10065;49.632;8.346;2023-08-12T07:55:09;8.43;;;5.97;;
19810;SDS011;10065;49.632;8.346;2023-08-12T07:57:38;8.98;;;6.65;;
19810;SDS011;10065;49.632;8.346;2023-08-12T08:00:08;11.88;;;7.20;;
19810;SDS011;10065;49.632;8.346;2023-08-12T08:02:36;9.48;;;6.60;;
19810;SDS011;10065;49.632;8.346;2023-08-12T08:05:05;11.20;;;7.05;;
19810;SDS011;10065;49.632;8.346;2023-08-12T08:07:33;11.32;;;7.63;;
19810;SDS011;10065;49.632;8.346;2023-08-12T08:10:01;12.52;;;7.72;;
19810;SDS011;10065;49.632;8.346;2023-08-12T08:12:29;12.63;;;6.32;;
19810;SDS011;10065;49.632;8.346;2023-08-12T08:14:57;8.73;;;5.63;;
19810;SDS011;10065;49.632;8.346;2023-08-12T08:17:26;8.40;;;5.25;;
19810;SDS011;10065;49.632;8.346;2023-08-12T08:19:56;8.93;;;5.72;;
19810;SDS011;10065;49.632;8.346;2023-08-12T08:22:23;7.95;;;5.40;;
19810;SDS011;10065;49.632;8.346;2023-08-12T08:24:51;8.60;;;5.88;;
19810;SDS011;10065;49.632;8.346;2023-08-12T08:27:19;5.90;;;5.13;;
19810;SDS011;10065;49.632;8.346;2023-08-12T08:29:47;10.32;;;6.32;;
19810;SDS011;10065;49.632;8.346;2023-08-12T08:32:15;9.65;;;6.10;;
19810;SDS011;10065;49.632;8.346;2023-08-12T08:34:44;8.75;;;5.72;;
19810;SDS011;10065;49.632;8.346;2023-08-12T08:37:12;7.57;;;5.68;;
19810;SDS011;10065;49.632;8.346;2023-08-12T08:39:39;8.20;;;5.95;;
19810;SDS011;10065;49.632;8.346;2023-08-12T08:42:07;9.93;;;6.30;;
19810;SDS011;10065;49.632;8.346;2023-08-12T08:44:37;11.25;;;5.68;;
19810;SDS011;10065;49.632;8.346;2023-08-12T08:47:08;8.18;;;5.70;;
19810;SDS011;10065;49.632;8.346;2023-08-12T08:49:38;8.10;;;5.68;;
19810;SDS011;10065;49.632;8.346;2023-08-12T08:52:08;8.63;;;4.68;;
19810;SDS011;10065;49.632;8.346;2023-08-12T08:54:37;7.78;;;5.05;;
19810;SDS011;10065;49.632;8.346;2023-08-12T08:57:06;6.85;;;4.57;;
19810;SDS011;10065;49.632;8.346;2023-08-12T08:59:44;8.98;;;5.65;;
19810;SDS011;10065;49.632;8.346;2023-08-12T09:02:12;6.55;;;4.68;;
19810;SDS011;10065;49.632;8.346;2023-08-12T09:04:44;7.40;;;4.90;;
19810;SDS011;10065;49.632;8.346;2023-08-12T09:07:14;8.93;;;4.90;;
19810;SDS011;10065;49.632;8.346;2023-08-12T09:09:44;6.75;;;4.72;;
19810;SDS011;10065;49.632;8.346;2023-08-12T09:12:14;5.47;;;4.13;;
19810;SDS011;10065;49.632;8.346;2023-08-12T09:14:43;7.43;;;4.95;;
19810;SDS011;10065;49.632;8.346;2023-08-12T09:17:11;7.95;;;5.07;;
19810;SDS011;10065;49.632;8.346;2023-08-12T09:19:39;8.80;;;4.45;;
19810;SDS011;10065;49.632;8.346;2023-08-12T09:22:07;5.40;;;4.35;;
19810;SDS011;10065;49.632;8.346;2023-08-12T09:24:38;6.25;;;4.57;;
19810;SDS011;10065;49.632;8.346;2023-08-12T09:27:06;7.05;;;4.38;;
19810;SDS011;10065;49.632;8.346;2023-08-12T09:29:34;7.50;;;4.57;;
19810;SDS011;10065;49.632;8.346;2023-08-12T09:32:07;7.15;;;4.70;;
19810;SDS011;10065;49.632;8.346;2023-08-12T09:34:37;9.68;;;4.43;;
19810;SDS011;10065;49.632;8.346;2023-08-12T09:37:11;7.68;;;4.15;;
19810;SDS011;10065;49.632;8.346;2023-08-12T09:39:41;7.63;;;3.85;;
19810;SDS011;10065;49.632;8.346;2023-08-12T09:42:09;5.50;;;4.05;;
19810;SDS011;10065;49.632;8.346;2023-08-12T09:44:37;7.03;;;5.30;;
19810;SDS011;10065;49.632;8.346;2023-08-12T09:47:06;6.53;;;4.80;;
19810;SDS011;10065;49.632;8.346;2023-08-12T09:49:35;7.38;;;5.50;;
19810;SDS011;10065;49.632;8.346;2023-08-12T09:52:03;10.90;;;6.32;;
19810;SDS011;10065;49.632;8.346;2023-08-12T09:54:32;12.10;;;8.40;;
19810;SDS011;10065;49.632;8.346;2023-08-12T09:57:02;9.88;;;7.15;;
19810;SDS011;10065;49.632;8.346;2023-08-12T09:59:33;12.50;;;7.70;;
19810;SDS011;10065;49.632;8.346;2023-08-12T10:02:02;11.40;;;8.00;;
19810;SDS011;10065;49.632;8.346;2023-08-12T10:04:33;6.50;;;4.50;;
19810;SDS011;10065;49.632;8.346;2023-08-12T10:07:07;8.43;;;4.53;;
19810;SDS011;10065;49.632;8.346;2023-08-12T10:09:37;7.30;;;4.88;;
19810;SDS011;10065;49.632;8.346;2023-08-12T10:12:07;8.30;;;5.72;;
19810;SDS011;10065;49.632;8.346;2023-08-12T10:14:37;10.98;;;5.25;;
19810;SDS011;10065;49.632;8.346;2023-08-12T10:17:06;11.20;;;6.57;;
19810;SDS011;10065;49.632;8.346;2023-08-12T10:19:35;10.38;;;6.43;;
19810;SDS011;10065;49.632;8.346;2023-08-12T10:22:04;7.45;;;4.57;;
19810;SDS011;10065;49.632;8.346;2023-08-12T10:24:33;7.78;;;4.55;;
19810;SDS011;10065;49.632;8.346;2023-08-12T10:27:02;7.35;;;4.65;;
19810;SDS011;10065;49.632;8.346;2023-08-12T10:29:32;9.45;;;4.85;;
19810;SDS011;10065;49.632;8.346;2023-08-12T10:32:00;10.43;;;5.13;;
19810;SDS011;10065;49.632;8.346;2023-08-12T10:34:28;9.90;;;5.50;;
19810;SDS011;10065;49.632;8.346;2023-08-12T10:36:56;6.03;;;4.22;;
19810;SDS011;10065;49.632;8.346;2023-08-12T10:39:30;5.50;;;3.72;;
19810;SDS011;10065;49.632;8.346;2023-08-12T10:41:59;10.68;;;4.82;;
19810;SDS011;10065;49.632;8.346;2023-08-12T10:44:37;5.95;;;3.53;;
19810;SDS011;10065;49.632;8.346;2023-08-12T10:47:16;4.85;;;2.10;;
19810;SDS011;10065;49.632;8.346;2023-08-12T10:49:47;4.63;;;2.47;;
19810;SDS011;10065;49.632;8.346;2023-08-12T10:52:19;7.70;;;2.50;;
19810;SDS011;10065;49.632;8.346;2023-08-12T10:54:53;6.72;;;2.53;;
19810;SDS011;10065;49.632;8.346;2023-08-12T10:57:34;10.80;;;3.47;;
19810;SDS011;10065;49.632;8.346;2023-08-12T11:00:06;16.92;;;3.95;;
19810;SDS011;10065;49.632;8.346;2023-08-12T11:02:39;17.17;;;6.32;;
19810;SDS011;10065;49.632;8.346;2023-08-12T11:05:08;14.65;;;4.45;;
19810;SDS011;10065;49.632;8.346;2023-08-12T11:07:38;14.95;;;4.93;;
19810;SDS011;10065;49.632;8.346;2023-08-12T11:10:12;13.98;;;5.00;;
19810;SDS011;10065;49.632;8.346;2023-08-12T11:12:41;8.90;;;3.70;;
19810;SDS011;10065;49.632;8.346;2023-08-12T11:15:15;8.45;;;4.20;;
19810;SDS011;10065;49.632;8.346;2023-08-12T11:17:44;10.02;;;3.13;;
19810;SDS011;10065;49.632;8.346;2023-08-12T11:20:13;8.60;;;3.38;;
19810;SDS011;10065;49.632;8.346;2023-08-12T11:22:42;12.57;;;3.83;;
19810;SDS011;10065;49.632;8.346;2023-08-12T11:25:12;7.07;;;3.00;;
19810;SDS011;10065;49.632;8.346;2023-08-12T11:27:41;10.43;;;4.18;;
19810;SDS011;10065;49.632;8.346;2023-08-12T11:30:10;12.57;;;3.83;;
19810;SDS011;10065;49.632;8.346;2023-08-12T11:32:42;9.32;;;3.53;;
19810;SDS011;10065;49.632;8.346;2023-08-12T11:35:12;7.28;;;3.50;;
19810;SDS011;10065;49.632;8.346;2023-08-12T11:37:41;8.75;;;3.45;;
19810;SDS011;10065;49.632;8.346;2023-08-12T11:40:10;7.22;;;2.92;;
19810;SDS011;10065;49.632;8.346;2023-08-12T11:42:41;9.73;;;3.33;;
19810;SDS011;10065;49.632;8.346;2023-08-12T11:45:11;10.50;;;3.60;;
19810;SDS011;10065;49.632;8.346;2023-08-12T11:47:39;6.32;;;3.30;;
19810;SDS011;10065;49.632;8.346;2023-08-12T11:50:11;6.45;;;3.17;;
19810;SDS011;10065;49.632;8.346;2023-08-12T11:52:40;8.43;;;3.78;;
19810;SDS011;10065;49.632;8.346;2023-08-12T11:55:08;8.02;;;3.13;;
19810;SDS011;10065;49.632;8.346;2023-08-12T11:57:36;10.75;;;3.38;;
19810;SDS011;10065;49.632;8.346;2023-08-12T12:00:08;10.93;;;3.47;;
19810;SDS011;10065;49.632;8.346;2023-08-12T12:02:45;7.63;;;4.05;;
19810;SDS011;10065;49.632;8.346;2023-08-12T12:05:16;11.18;;;3.80;;
19810;SDS011;10065;49.632;8.346;2023-08-12T12:07:49;10.85;;;3.92;;
19810;SDS011;10065;49.632;8.346;2023-08-12T12:10:18;7.75;;;3.85;;
19810;SDS011;10065;49.632;8.346;2023-08-12T12:12:48;8.02;;;3.67;;
19810;SDS011;10065;49.632;8.346;2023-08-12T12:15:15;6.20;;;3.35;;
19810;SDS011;10065;49.632;8.346;2023-08-12T12:17:44;7.40;;;3.40;;
19810;SDS011;10065;49.632;8.346;2023-08-12T12:20:13;7.90;;;3.65;;
19810;SDS011;10065;49.632;8.346;2023-08-12T12:22:43;5.63;;;3.03;;
19810;SDS011;10065;49.632;8.346;2023-08-12T12:25:13;6.95;;;3.95;;
19810;SDS011;10065;49.632;8.346;2023-08-12T12:27:42;8.55;;;4.00;;
19810;SDS011;10065;49.632;8.346;2023-08-12T12:30:12;9.48;;;3.50;;
19810;SDS011;10065;49.632;8.346;2023-08-12T12:32:41;7.30;;;3.53;;
19810;SDS011;10065;49.632;8.346;2023-08-12T12:35:09;6.25;;;3.33;;
19810;SDS011;10065;49.632;8.346;2023-08-12T12:37:38;5.45;;;3.22;;
19810;SDS011;10065;49.632;8.346;2023-08-12T12:40:08;6.38;;;3.50;;
19810;SDS011;10065;49.632;8.346;2023-08-12T12:42:36;6.78;;;4.18;;
19810;SDS011;10065;49.632;8.346;2023-08-12T12:45:05;6.80;;;3.47;;
19810;SDS011;10065;49.632;8.346;2023-08-12T12:47:34;6.35;;;3.22;;
19810;SDS011;10065;49.632;8.346;2023-08-12T12:50:02;5.35;;;3.15;;
19810;SDS011;10065;49.632;8.346;2023-08-12T12:52:30;4.60;;;2.85;;
19810;SDS011;10065;49.632;8.346;2023-08-12T12:55:00;5.07;;;2.97;;
19810;SDS011;10065;49.632;8.346;2023-08-12T12:57:32;5.00;;;2.30;;
19810;SDS011;10065;49.632;8.346;2023-08-12T13:00:00;4.43;;;2.70;;
19810;SDS011;10065;49.632;8.346;2023-08-12T13:02:30;9.18;;;3.45;;
19810;SDS011;10065;49.632;8.346;2023-08-12T13:04:58;6.88;;;3.30;;
19810;SDS011;10065;49.632;8.346;2023-08-12T13:07:26;6.65;;;2.80;;
19810;SDS011;10065;49.632;8.346;2023-08-12T13:09:54;4.38;;;2.78;;
19810;SDS011;10065;49.632;8.346;2023-08-12T13:12:22;7.18;;;3.13;;
19810;SDS011;10065;49.632;8.346;2023-08-12T13:14:51;6.28;;;3.88;;
19810;SDS011;10065;49.632;8.346;2023-08-12T13:17:19;5.05;;;3.58;;
19810;SDS011;10065;49.632;8.346;2023-08-12T13:19:49;7.20;;;3.47;;
19810;SDS011;10065;49.632;8.346;2023-08-12T13:22:17;8.32;;;3.55;;
19810;SDS011;10065;49.632;8.346;2023-08-12T13:24:47;6.93;;;3.30;;
19810;SDS011;10065;49.632;8.346;2023-08-12T13:27:15;5.72;;;2.78;;
19810;SDS011;10065;49.632;8.346;2023-08-12T13:29:43;5.07;;;2.88;;
19810;SDS011;10065;49.632;8.346;2023-08-12T13:32:12;6.60;;;2.70;;
19810;SDS011;10065;49.632;8.346;2023-08-12T13:34:41;6.60;;;2.63;;
19810;SDS011;10065;49.632;8.346;2023-08-12T13:37:12;3.92;;;2.72;;
19810;SDS011;10065;49.632;8.346;2023-08-12T13:39:40;4.15;;;2.42;;
19810;SDS011;10065;49.632;8.346;2023-08-12T13:42:08;6.55;;;2.90;;
19810;SDS011;10065;49.632;8.346;2023-08-12T13:44:36;7.38;;;2.78;;
19810;SDS011;10065;49.632;8.346;2023-08-12T13:47:04;6.78;;;2.50;;
19810;SDS011;10065;49.632;8.346;2023-08-12T13:49:33;4.88;;;2.53;;
19810;SDS011;10065;49.632;8.346;2023-08-12T13:52:01;4.72;;;2.90;;
19810;SDS011;10065;49.632;8.346;2023-08-12T13:54:29;5.50;;;2.95;;
19810;SDS011;10065;49.632;8.346;2023-08-12T13:56:56;5.78;;;3.47;;
19810;SDS011;10065;49.632;8.346;2023-08-12T13:59:24;7.05;;;3.38;;
19810;SDS011;10065;49.632;8.346;2023-08-12T14:01:53;4.82;;;3.08;;
19810;SDS011;10065;49.632;8.346;2023-08-12T14:04:22;4.75;;;2.50;;
19810;SDS011;10065;49.632;8.346;2023-08-12T14:06:53;6.60;;;2.45;;
19810;SDS011;10065;49.632;8.346;2023-08-12T14:09:21;5.03;;;2.60;;
19810;SDS011;10065;49.632;8.346;2023-08-12T14:11:48;3.30;;;2.28;;
19810;SDS011;10065;49.632;8.346;2023-08-12T14:14:16;4.82;;;2.33;;
19810;SDS011;10065;49.632;8.346;2023-08-12T14:16:44;5.45;;;2.40;;
19810;SDS011;10065;49.632;8.346;2023-08-12T14:19:12;5.10;;;2.30;;
19810;SDS011;10065;49.632;8.346;2023-08-12T14:21:44;4.63;;;2.72;;
19810;SDS011;10065;49.632;8.346;2023-08-12T14:24:13;3.95;;;2.58;;
19810;SDS011;10065;49.632;8.346;2023-08-12T14:26:41;4.93;;;3.03;;
19810;SDS011;10065;49.632;8.346;2023-08-12T14:29:08;3.47;;;2.53;;
19810;SDS011;10065;49.632;8.346;2023-08-12T14:31:36;5.38;;;3.00;;
19810;SDS011;10065;49.632;8.346;2023-08-12T14:34:04;6.55;;;3.10;;
19810;SDS011;10065;49.632;8.346;2023-08-12T14:36:32;6.63;;;3.00;;
19810;SDS011;10065;49.632;8.346;2023-08-12T14:39:01;6.70;;;3.53;;
19810;SDS011;10065;49.632;8.346;2023-08-12T14:41:30;5.10;;;3.40;;
19810;SDS011;10065;49.632;8.346;2023-08-12T14:43:58;6.13;;;3.35;;
19810;SDS011;10065;49.632;8.346;2023-08-12T14:46:25;6.65;;;3.40;;
19810;SDS011;10065;49.632;8.346;2023-08-12T14:48:53;8.98;;;3.72;;
19810;SDS011;10065;49.632;8.346;2023-08-12T14:51:22;6.43;;;3.83;;
19810;SDS011;10065;49.632;8.346;2023-08-12T14:53:50;4.53;;;3.58;;